Time,TemperatureF,DewpointF,PressureIn,WindDirection,WindDirectionDegrees,WindSpeedMPH,WindSpeedGustMPH,Humidity,HourlyPrecipIn,Conditions,Clouds,dailyrainin,SoftwareType,DateUTC
2013-10-15 00:14:00,56.0,55.0,-100.00,NNE,20,2.0,6.0,98,-99.99,,,-99.99,,2013-10-15 04:14:00,
2013-10-15 00:24:00,56.0,55.0,-100.00,NE,35,4.0,6.0,98,-99.99,,,-99.99,,2013-10-15 04:24:00,
2013-10-15 00:34:00,56.0,55.0,-100.00,NE,35,4.0,6.0,98,-99.99,,,-99.99,,2013-10-15 04:34:00,
2013-10-15 00:54:00,55.0,55.0,-100.00,NNE,20,3.0,8.0,98,-99.99,,,-99.99,,2013-10-15 04:54:00,
2013-10-15 01:13:00,55.0,55.0,-100.00,NE,35,4.0,7.0,98,-99.99,,,-99.99,,2013-10-15 05:13:00,
2013-10-15 01:22:00,55.0,54.0,-100.00,NE,35,2.0,7.0,98,-99.99,,,-99.99,,2013-10-15 05:22:00,
2013-10-15 01:34:00,55.0,54.0,-100.00,NE,35,2.0,7.0,98,-99.99,,,-99.99,,2013-10-15 05:34:00,
2013-10-15 01:53:00,55.0,54.0,-100.00,NNE,25,3.0,6.0,98,-99.99,,,-99.99,,2013-10-15 05:53:00,
2013-10-15 02:12:00,55.0,54.0,-100.00,NE,35,2.0,6.0,98,-99.99,,,-99.99,,2013-10-15 06:12:00,
2013-10-15 02:22:00,54.0,54.0,-100.00,North,10,0.0,6.0,98,-99.99,,,-99.99,,2013-10-15 06:22:00,
2013-10-15 02:32:00,54.0,54.0,-100.00,North,10,0.0,6.0,98,-99.99,,,-99.99,,2013-10-15 06:32:00,
2013-10-15 02:52:00,54.0,54.0,-100.00,NNE,15,1.0,4.0,98,-99.99,,,-99.99,,2013-10-15 06:52:00,
2013-10-15 03:12:00,54.0,53.0,-100.00,North,5,1.0,3.0,98,-99.99,,,-99.99,,2013-10-15 07:12:00,
2013-10-15 03:22:00,53.0,52.0,-100.00,NW,325,0.0,1.0,98,-99.99,,,-99.99,,2013-10-15 07:22:00,
2013-10-15 03:32:00,53.0,52.0,-100.00,NW,325,0.0,1.0,98,-99.99,,,-99.99,,2013-10-15 07:32:00,
2013-10-15 03:53:00,53.0,53.0,-100.00,North,350,2.0,4.0,98,-99.99,,,-99.99,,2013-10-15 07:53:00,
2013-10-15 04:12:00,53.0,53.0,-100.00,NE,35,0.0,3.0,98,-99.99,,,-99.99,,2013-10-15 08:12:00,
2013-10-15 04:22:00,53.0,52.0,-100.00,NE,45,2.0,4.0,98,-99.99,,,-99.99,,2013-10-15 08:22:00,
2013-10-15 04:32:00,53.0,52.0,-100.00,NE,45,2.0,4.0,98,-99.99,,,-99.99,,2013-10-15 08:32:00,
2013-10-15 04:52:00,53.0,52.0,-100.00,NNE,20,2.0,4.0,98,-99.99,,,-99.99,,2013-10-15 08:52:00,
2013-10-15 05:12:00,53.0,52.0,-100.00,North,0,1.0,4.0,98,-99.99,,,-99.99,,2013-10-15 09:12:00,
2013-10-15 05:22:00,52.0,52.0,-100.00,NE,40,1.0,3.0,98,-99.99,,,-99.99,,2013-10-15 09:22:00,
2013-10-15 05:33:00,52.0,52.0,-100.00,NE,40,1.0,3.0,98,-99.99,,,-99.99,,2013-10-15 09:33:00,
2013-10-15 05:53:00,52.0,52.0,-100.00,NE,55,1.0,4.0,98,-99.99,,,-99.99,,2013-10-15 09:53:00,
2013-10-15 06:03:00,52.0,52.0,-100.00,NE,55,1.0,4.0,98,-99.99,,,-99.99,,2013-10-15 10:03:00,
2013-10-15 06:13:00,52.0,52.0,-100.00,NE,55,1.0,4.0,98,-99.99,,,-99.99,,2013-10-15 10:13:00,
2013-10-15 06:23:00,52.0,52.0,-100.00,ENE,70,0.0,4.0,98,-99.99,,,-99.99,,2013-10-15 10:23:00,
2013-10-15 06:32:00,52.0,52.0,-100.00,ENE,70,0.0,4.0,98,-99.99,,,-99.99,,2013-10-15 10:32:00,
2013-10-15 06:53:00,53.0,52.0,-100.00,NE,35,2.0,4.0,98,-99.99,,,-99.99,,2013-10-15 10:53:00,
2013-10-15 07:12:00,53.0,52.0,-100.00,NE,40,3.0,7.0,98,-99.99,,,-99.99,,2013-10-15 11:12:00,
2013-10-15 07:22:00,53.0,53.0,-100.00,North,5,2.0,6.0,98,-99.99,,,-99.99,,2013-10-15 11:22:00,
2013-10-15 07:33:00,53.0,53.0,-100.00,North,5,2.0,6.0,98,-99.99,,,-99.99,,2013-10-15 11:33:00,
2013-10-15 07:53:00,53.0,53.0,-100.00,NNW,340,3.0,7.0,98,-99.99,,,-99.99,,2013-10-15 11:53:00,
2013-10-15 08:12:00,53.0,53.0,-100.00,NE,50,4.0,8.0,98,-99.99,,,-99.99,,2013-10-15 12:12:00,
2013-10-15 08:22:00,53.0,53.0,-100.00,NNE,25,4.0,11.0,98,-99.99,,,-99.99,,2013-10-15 12:22:00,
2013-10-15 08:32:00,53.0,53.0,-100.00,NNE,25,4.0,11.0,98,-99.99,,,-99.99,,2013-10-15 12:32:00,
2013-10-15 08:52:00,53.0,53.0,-100.00,NNE,30,3.0,7.0,98,-99.99,,,-99.99,,2013-10-15 12:52:00,
2013-10-15 09:22:00,54.0,53.0,-100.00,NNE,20,3.0,10.0,98,-99.99,,,-99.99,,2013-10-15 13:22:00,
2013-10-15 09:32:00,54.0,53.0,-100.00,NNE,20,3.0,10.0,98,-99.99,,,-99.99,,2013-10-15 13:32:00,
2013-10-15 09:52:00,55.0,54.0,-100.00,NE,35,2.0,6.0,98,-99.99,,,-99.99,,2013-10-15 13:52:00,
2013-10-15 10:22:00,57.0,56.0,-100.00,NE,35,1.0,7.0,98,-99.99,,,-99.99,,2013-10-15 14:22:00,
2013-10-15 10:32:00,57.0,56.0,-100.00,NE,35,1.0,7.0,98,-99.99,,,-99.99,,2013-10-15 14:32:00,
2013-10-15 10:52:00,57.0,54.0,-100.00,NNE,15,5.0,11.0,90,-99.99,,,-99.99,,2013-10-15 14:52:00,
2013-10-15 11:11:00,60.0,55.0,-100.00,East,85,2.0,11.0,84,-99.99,,,-99.99,,2013-10-15 15:11:00,
2013-10-15 11:22:00,61.0,54.0,-100.00,NE,35,5.0,9.0,80,-99.99,,,-99.99,,2013-10-15 15:22:00,
2013-10-15 11:33:00,61.0,54.0,-100.00,NE,35,5.0,9.0,80,-99.99,,,-99.99,,2013-10-15 15:33:00,
2013-10-15 11:53:00,62.0,55.0,-100.00,NE,40,5.0,11.0,78,-99.99,,,-99.99,,2013-10-15 15:53:00,
2013-10-15 12:13:00,63.0,55.0,-100.00,NE,55,4.0,11.0,76,-99.99,,,-99.99,,2013-10-15 16:13:00,
2013-10-15 12:23:00,64.0,56.0,-100.00,East,85,4.0,9.0,75,-99.99,,,-99.99,,2013-10-15 16:23:00,
2013-10-15 12:33:00,64.0,56.0,-100.00,East,85,4.0,9.0,75,-99.99,,,-99.99,,2013-10-15 16:33:00,
2013-10-15 12:53:00,65.0,56.0,-100.00,NE,35,2.0,8.0,74,-99.99,,,-99.99,,2013-10-15 16:53:00,
2013-10-15 13:12:00,66.0,57.0,-100.00,NE,40,4.0,8.0,73,-99.99,,,-99.99,,2013-10-15 17:12:00,
2013-10-15 13:22:00,67.0,57.0,-100.00,NE,50,2.0,8.0,71,-99.99,,,-99.99,,2013-10-15 17:22:00,
2013-10-15 13:33:00,67.0,57.0,-100.00,NE,50,2.0,8.0,71,-99.99,,,-99.99,,2013-10-15 17:33:00,
2013-10-15 13:53:00,67.0,57.0,-100.00,North,0,1.0,11.0,70,-99.99,,,-99.99,,2013-10-15 17:53:00,
2013-10-15 14:02:00,67.0,57.0,-100.00,North,0,1.0,11.0,70,-99.99,,,-99.99,,2013-10-15 18:02:00,
2013-10-15 14:22:00,69.0,57.0,-100.00,SW,215,5.0,15.0,66,-99.99,,,-99.99,,2013-10-15 18:22:00,
2013-10-15 14:32:00,69.0,57.0,-100.00,SW,215,5.0,15.0,66,-99.99,,,-99.99,,2013-10-15 18:32:00,
2013-10-15 14:52:00,69.0,58.0,-100.00,NNE,25,3.0,10.0,66,-99.99,,,-99.99,,2013-10-15 18:52:00,
2013-10-15 15:12:00,70.0,58.0,-100.00,NNE,30,1.0,9.0,67,-99.99,,,-99.99,,2013-10-15 19:12:00,
2013-10-15 15:22:00,70.0,58.0,-100.00,NE,40,2.0,6.0,67,-99.99,,,-99.99,,2013-10-15 19:22:00,
2013-10-15 15:32:00,70.0,58.0,-100.00,NE,40,2.0,6.0,67,-99.99,,,-99.99,,2013-10-15 19:32:00,
2013-10-15 15:52:00,69.0,59.0,-100.00,East,90,1.0,5.0,70,-99.99,,,-99.99,,2013-10-15 19:52:00,
2013-10-15 16:12:00,69.0,59.0,-100.00,NNE,30,3.0,10.0,71,-99.99,,,-99.99,,2013-10-15 20:12:00,
2013-10-15 16:22:00,69.0,60.0,-100.00,NNE,30,2.0,5.0,74,-99.99,,,-99.99,,2013-10-15 20:22:00,
2013-10-15 16:32:00,69.0,60.0,-100.00,NNE,30,2.0,5.0,74,-99.99,,,-99.99,,2013-10-15 20:32:00,
2013-10-15 16:42:00,69.0,60.0,-100.00,NNE,30,2.0,5.0,74,-99.99,,,-99.99,,2013-10-15 20:42:00,
2013-10-15 17:22:00,67.0,62.0,-100.00,NNE,25,2.0,6.0,82,-99.99,,,-99.99,,2013-10-15 21:22:00,
2013-10-15 17:34:00,67.0,62.0,-100.00,NNE,25,2.0,6.0,82,-99.99,,,-99.99,,2013-10-15 21:34:00,
2013-10-15 17:54:00,67.0,61.0,-100.00,NNE,25,0.0,5.0,83,-99.99,,,-99.99,,2013-10-15 21:54:00,
2013-10-15 18:13:00,67.0,62.0,-100.00,North,350,0.0,5.0,84,-99.99,,,-99.99,,2013-10-15 22:13:00,
2013-10-15 18:23:00,66.0,62.0,-100.00,NNW,335,0.0,2.0,87,-99.99,,,-99.99,,2013-10-15 22:23:00,
2013-10-15 18:33:00,66.0,62.0,-100.00,NNW,335,0.0,2.0,87,-99.99,,,-99.99,,2013-10-15 22:33:00,
2013-10-15 18:54:00,66.0,63.0,-100.00,ENE,75,0.0,2.0,90,-99.99,,,-99.99,,2013-10-15 22:54:00,
2013-10-15 19:12:00,66.0,63.0,-100.00,NNE,15,1.0,3.0,92,-99.99,,,-99.99,,2013-10-15 23:12:00,
2013-10-15 19:22:00,65.0,63.0,-100.00,NNE,25,0.0,2.0,92,-99.99,,,-99.99,,2013-10-15 23:22:00,
2013-10-15 19:34:00,65.0,63.0,-100.00,NNE,25,0.0,2.0,92,-99.99,,,-99.99,,2013-10-15 23:34:00,
2013-10-15 19:53:00,65.0,63.0,-100.00,ENE,65,1.0,6.0,93,-99.99,,,-99.99,,2013-10-15 23:53:00,
2013-10-15 20:12:00,65.0,63.0,-100.00,NE,35,2.0,4.0,93,-99.99,,,-99.99,,2013-10-16 00:12:00,
2013-10-15 20:22:00,65.0,63.0,-100.00,NNE,25,1.0,4.0,94,-99.99,,,-99.99,,2013-10-16 00:22:00,
2013-10-15 20:33:00,65.0,63.0,-100.00,NNE,25,1.0,4.0,94,-99.99,,,-99.99,,2013-10-16 00:33:00,
2013-10-15 20:52:00,65.0,-99.9,-100.00,North,-999,-999.0,-999.0,-999,-99.99,,,-99.99,,2013-10-16 00:52:00,
2013-10-15 21:12:00,65.0,63.0,-100.00,ESE,105,0.0,2.0,95,-99.99,,,-99.99,,2013-10-16 01:12:00,
2013-10-15 21:22:00,64.0,63.0,-100.00,ENE,65,0.0,2.0,96,-99.99,,,-99.99,,2013-10-16 01:22:00,
2013-10-15 21:32:00,64.0,63.0,-100.00,ENE,65,0.0,2.0,96,-99.99,,,-99.99,,2013-10-16 01:32:00,
2013-10-15 21:53:00,64.0,63.0,-100.00,NNW,345,0.0,3.0,96,-99.99,,,-99.99,,2013-10-16 01:53:00,
2013-10-15 22:12:00,64.0,63.0,-100.00,NNE,25,0.0,3.0,97,-99.99,,,-99.99,,2013-10-16 02:12:00,
2013-10-15 22:22:00,64.0,63.0,-100.00,NE,45,2.0,6.0,98,-99.99,,,-99.99,,2013-10-16 02:22:00,
2013-10-15 22:32:00,64.0,63.0,-100.00,NE,45,2.0,6.0,98,-99.99,,,-99.99,,2013-10-16 02:32:00,
2013-10-15 22:52:00,63.0,63.0,-100.00,NE,35,0.0,2.0,98,-99.99,,,-99.99,,2013-10-16 02:52:00,
2013-10-15 23:11:00,63.0,63.0,-100.00,North,10,1.0,5.0,98,-99.99,,,-99.99,,2013-10-16 03:11:00,
2013-10-15 23:22:00,63.0,63.0,-100.00,North,350,0.0,4.0,98,-99.99,,,-99.99,,2013-10-16 03:22:00,
2013-10-15 23:34:00,63.0,63.0,-100.00,North,350,0.0,4.0,98,-99.99,,,-99.99,,2013-10-16 03:34:00,
2013-10-15 23:55:00,63.0,63.0,-100.00,North,5,0.0,2.0,98,-99.99,,,-99.99,,2013-10-16 03:55:00,